Time;durP1;ratioP1;P1;durP2;ratioP2;P2;SDS_P1;SDS_P2;PMS_P1;PMS_P2;Temp;Humidity;BMP_temperature;BMP_pressure;BME280_temperature;BME280_humidity;BME280_pressure;Samples;Min_cycle;Max_cycle;Signal;HPM_P1;HPM_P2
2023/12/15 00:00:16;;;;;;;14.20;6.60;;;;;;;;;;6391496;22;20609;-74
2023/12/15 00:02:42;;;;;;;15.50;6.18;;;;;;;;;;6392148;22;20018;-74
2023/12/15 00:05:07;;;;;;;18.83;6.43;;;;;;;;;;6391648;22;20022;-74
2023/12/15 00:07:33;;;;;;;13.73;6.60;;;;;;;;;;6363389;22;20013;-74
2023/12/15 00:09:58;;;;;;;12.73;7.13;;;;;;;;;;6393010;22;20004;-75
2023/12/15 00:12:23;;;;;;;20.70;7.80;;;;;;;;;;6391216;22;20022;-75
2023/12/15 00:14:49;;;;;;;21.40;7.88;;;;;;;;;;6392429;22;20014;-74
2023/12/15 00:17:14;;;;;;;20.13;8.00;;;;;;;;;;6392625;22;20014;-74
2023/12/15 00:19:39;;;;;;;14.60;6.75;;;;;;;;;;6362430;22;20353;-74
2023/12/15 00:22:05;;;;;;;22.60;8.55;;;;;;;;;;6392918;22;20100;-74
2023/12/15 00:24:30;;;;;;;22.02;8.70;;;;;;;;;;6392610;22;19993;-74
2023/12/15 00:26:58;;;;;;;18.50;7.65;;;;;;;;;;6363495;22;20030;-75
2023/12/15 00:29:24;;;;;;;19.13;7.78;;;;;;;;;;6363761;22;20038;-74
2023/12/15 00:31:50;;;;;;;25.38;9.63;;;;;;;;;;6392215;22;20024;-74
2023/12/15 00:34:15;;;;;;;25.40;9.68;;;;;;;;;;6392039;22;20001;-74
2023/12/15 00:36:40;;;;;;;24.17;10.07;;;;;;;;;;6392420;22;19998;-74
2023/12/15 00:39:06;;;;;;;24.63;10.10;;;;;;;;;;6364068;22;20457;-74
2023/12/15 00:41:31;;;;;;;27.85;10.15;;;;;;;;;;6392279;22;20438;-74
2023/12/15 00:43:56;;;;;;;25.27;11.02;;;;;;;;;;6392871;22;20002;-75
2023/12/15 00:46:22;;;;;;;21.63;9.35;;;;;;;;;;6397419;22;20020;-75
2023/12/15 00:48:47;;;;;;;19.25;8.98;;;;;;;;;;6407445;22;20004;-74
2023/12/15 00:51:12;;;;;;;20.23;8.68;;;;;;;;;;6371266;22;20022;-74
2023/12/15 00:53:38;;;;;;;26.90;9.38;;;;;;;;;;6363757;22;20039;-74
2023/12/15 00:56:03;;;;;;;20.50;8.68;;;;;;;;;;6391046;22;20652;-74
2023/12/15 00:58:29;;;;;;;20.85;8.23;;;;;;;;;;6391191;22;20001;-74
2023/12/15 01:00:54;;;;;;;20.65;8.70;;;;;;;;;;6392654;22;20001;-74
2023/12/15 01:03:19;;;;;;;25.25;9.70;;;;;;;;;;6363417;22;20014;-74
2023/12/15 01:05:45;;;;;;;20.88;9.43;;;;;;;;;;6363102;22;20022;-74
2023/12/15 01:08:10;;;;;;;24.10;9.13;;;;;;;;;;6391639;22;20480;-74
2023/12/15 01:10:37;;;;;;;29.73;10.82;;;;;;;;;;6362609;22;20025;-74
2023/12/15 01:13:03;;;;;;;23.52;9.90;;;;;;;;;;6390607;22;20024;-74
2023/12/15 01:15:28;;;;;;;22.90;10.20;;;;;;;;;;6391040;22;19994;-74
2023/12/15 01:17:54;;;;;;;27.77;10.35;;;;;;;;;;6391672;22;20025;-74
2023/12/15 01:20:19;;;;;;;26.77;10.77;;;;;;;;;;6391471;22;20020;-74
2023/12/15 01:22:45;;;;;;;27.83;11.02;;;;;;;;;;6389534;22;20010;-74
2023/12/15 01:25:10;;;;;;;24.77;10.27;;;;;;;;;;6362755;22;20028;-74
2023/12/15 01:27:35;;;;;;;25.73;9.85;;;;;;;;;;6392335;22;19997;-74
2023/12/15 01:30:01;;;;;;;28.60;11.23;;;;;;;;;;6390638;22;20090;-74
2023/12/15 01:32:26;;;;;;;30.05;10.43;;;;;;;;;;6391566;22;20080;-74
2023/12/15 01:34:52;;;;;;;28.10;10.30;;;;;;;;;;6390287;22;20473;-74
2023/12/15 01:37:17;;;;;;;21.15;8.95;;;;;;;;;;6390717;22;19997;-74
2023/12/15 01:39:42;;;;;;;26.25;9.35;;;;;;;;;;6391987;22;19994;-74
2023/12/15 01:42:08;;;;;;;26.50;10.05;;;;;;;;;;6390711;22;20020;-74
2023/12/15 01:44:33;;;;;;;30.35;10.93;;;;;;;;;;6391654;22;20009;-74
2023/12/15 01:47:00;;;;;;;27.80;9.65;;;;;;;;;;6390710;22;20008;-74
2023/12/15 01:49:27;;;;;;;26.42;10.13;;;;;;;;;;6363055;22;20489;-74
2023/12/15 01:51:52;;;;;;;27.15;10.98;;;;;;;;;;6391809;22;20564;-74
2023/12/15 01:54:18;;;;;;;25.70;10.18;;;;;;;;;;6363029;22;20469;-75
2023/12/15 01:56:43;;;;;;;26.67;10.27;;;;;;;;;;6391199;22;20017;-74
2023/12/15 01:59:10;;;;;;;25.48;10.48;;;;;;;;;;6391792;22;20412;-74
2023/12/15 02:01:36;;;;;;;25.90;9.55;;;;;;;;;;6391674;22;20017;-74
2023/12/15 02:04:01;;;;;;;27.75;10.48;;;;;;;;;;6394212;22;20077;-74
2023/12/15 02:06:26;;;;;;;23.60;9.75;;;;;;;;;;6401520;22;20017;-74
2023/12/15 02:08:52;;;;;;;27.25;10.63;;;;;;;;;;6411369;22;20026;-74
2023/12/15 02:11:17;;;;;;;25.70;9.75;;;;;;;;;;6402352;22;20418;-74
2023/12/15 02:13:43;;;;;;;28.65;10.20;;;;;;;;;;6395210;22;20043;-74
2023/12/15 02:16:08;;;;;;;17.95;8.70;;;;;;;;;;6392583;22;20073;-74
2023/12/15 02:18:34;;;;;;;25.60;10.18;;;;;;;;;;6392746;22;20374;-74
2023/12/15 02:20:59;;;;;;;26.98;10.73;;;;;;;;;;6391132;22;20022;-74
2023/12/15 02:23:24;;;;;;;27.98;9.98;;;;;;;;;;6391123;22;20018;-74
2023/12/15 02:25:50;;;;;;;23.98;11.50;;;;;;;;;;6390713;22;20009;-74
2023/12/15 02:28:15;;;;;;;19.98;9.52;;;;;;;;;;6390086;22;19998;-74
2023/12/15 02:30:41;;;;;;;34.30;11.02;;;;;;;;;;6362780;22;20036;-78
2023/12/15 02:33:06;;;;;;;42.28;11.07;;;;;;;;;;6362458;22;20361;-74
2023/12/15 02:35:31;;;;;;;26.90;10.32;;;;;;;;;;6391094;22;20017;-74
2023/12/15 02:37:57;;;;;;;29.70;10.35;;;;;;;;;;6362514;22;20026;-74
2023/12/15 02:40:22;;;;;;;28.30;10.18;;;;;;;;;;6390620;22;20002;-74
2023/12/15 02:42:47;;;;;;;29.30;11.05;;;;;;;;;;6390694;22;20008;-74
2023/12/15 02:45:13;;;;;;;28.30;9.82;;;;;;;;;;6362451;22;20010;-74
2023/12/15 02:47:38;;;;;;;33.72;10.63;;;;;;;;;;6390474;22;20186;-74
2023/12/15 02:50:04;;;;;;;24.67;10.20;;;;;;;;;;6362369;22;20002;-74
2023/12/15 02:52:29;;;;;;;28.60;10.95;;;;;;;;;;6390213;22;20480;-74
2023/12/15 02:54:55;;;;;;;25.88;10.23;;;;;;;;;;6390924;22;20033;-74
2023/12/15 02:57:20;;;;;;;22.88;9.52;;;;;;;;;;6390607;22;20013;-74
2023/12/15 02:59:46;;;;;;;31.17;11.75;;;;;;;;;;6390632;22;20139;-74
2023/12/15 03:02:11;;;;;;;30.30;11.77;;;;;;;;;;6390833;22;20483;-74
2023/12/15 03:04:36;;;;;;;26.48;11.18;;;;;;;;;;6391012;22;20036;-74
2023/12/15 03:07:02;;;;;;;28.02;10.45;;;;;;;;;;6391612;22;20013;-74
2023/12/15 03:09:27;;;;;;;33.30;12.48;;;;;;;;;;6393370;22;20005;-74
2023/12/15 03:11:52;;;;;;;28.88;11.27;;;;;;;;;;6363873;22;20010;-74
2023/12/15 03:14:18;;;;;;;31.13;11.68;;;;;;;;;;6392664;22;20037;-74
2023/12/15 03:16:43;;;;;;;34.13;12.57;;;;;;;;;;6392526;22;20357;-74
2023/12/15 03:19:09;;;;;;;33.50;11.73;;;;;;;;;;6392918;22;20001;-75
2023/12/15 03:21:34;;;;;;;34.30;12.32;;;;;;;;;;6393776;22;20002;-74
2023/12/15 03:24:00;;;;;;;37.83;12.80;;;;;;;;;;6366449;22;20414;-74
2023/12/15 03:26:26;;;;;;;29.77;12.48;;;;;;;;;;6376060;22;20013;-74
2023/12/15 03:28:52;;;;;;;40.45;12.82;;;;;;;;;;6379592;22;20048;-74
2023/12/15 03:31:17;;;;;;;35.55;12.75;;;;;;;;;;6393260;22;20001;-74
2023/12/15 03:33:42;;;;;;;31.88;12.25;;;;;;;;;;6392906;22;19997;-74
2023/12/15 03:36:08;;;;;;;34.63;11.98;;;;;;;;;;6392925;22;20513;-74
2023/12/15 03:38:34;;;;;;;37.08;12.05;;;;;;;;;;6391948;22;20932;-74
2023/12/15 03:40:59;;;;;;;44.00;14.07;;;;;;;;;;6392689;22;20006;-74
2023/12/15 03:43:25;;;;;;;39.63;12.95;;;;;;;;;;6391944;22;20025;-74
2023/12/15 03:45:50;;;;;;;36.97;13.45;;;;;;;;;;6392656;22;20425;-74
2023/12/15 03:48:16;;;;;;;33.80;12.57;;;;;;;;;;6390186;22;20020;-74
2023/12/15 03:50:41;;;;;;;36.25;13.52;;;;;;;;;;6363990;22;20018;-74
2023/12/15 03:53:07;;;;;;;48.83;15.32;;;;;;;;;;6389808;22;20087;-74
2023/12/15 03:55:33;;;;;;;48.33;15.05;;;;;;;;;;6392842;22;20006;-74
2023/12/15 03:57:58;;;;;;;43.75;12.52;;;;;;;;;;6393132;22;20005;-74
2023/12/15 04:00:23;;;;;;;50.67;14.52;;;;;;;;;;6363433;22;20022;-74
2023/12/15 04:02:49;;;;;;;46.00;13.98;;;;;;;;;;6392247;22;20018;-74
2023/12/15 04:05:15;;;;;;;43.25;14.52;;;;;;;;;;6362780;22;20376;-74
2023/12/15 04:07:40;;;;;;;52.25;15.75;;;;;;;;;;6364083;22;20010;-74
2023/12/15 04:10:06;;;;;;;45.30;13.13;;;;;;;;;;6392174;22;20001;-74
2023/12/15 04:12:32;;;;;;;55.50;15.85;;;;;;;;;;6392487;22;20441;-74
2023/12/15 04:14:57;;;;;;;49.08;13.77;;;;;;;;;;6391893;22;20014;-74
2023/12/15 04:17:22;;;;;;;51.92;13.60;;;;;;;;;;6391704;22;20061;-74
2023/12/15 04:19:48;;;;;;;45.00;13.35;;;;;;;;;;6390890;22;20402;-74
2023/12/15 04:22:13;;;;;;;52.30;15.45;;;;;;;;;;6391656;22;20002;-74
2023/12/15 04:24:40;;;;;;;48.53;14.10;;;;;;;;;;6392605;22;19997;-74
2023/12/15 04:27:05;;;;;;;41.05;14.13;;;;;;;;;;6363273;22;20093;-74
2023/12/15 04:29:30;;;;;;;49.15;13.27;;;;;;;;;;6363756;22;20086;-74
2023/12/15 04:31:56;;;;;;;46.00;14.57;;;;;;;;;;6391564;22;20076;-74
2023/12/15 04:34:21;;;;;;;51.15;14.25;;;;;;;;;;6391820;22;20049;-74
2023/12/15 04:36:46;;;;;;;47.60;14.52;;;;;;;;;;6364270;22;20051;-74
2023/12/15 04:39:12;;;;;;;44.08;13.05;;;;;;;;;;6392245;22;20017;-74
2023/12/15 04:41:37;;;;;;;48.72;14.15;;;;;;;;;;6392648;22;20065;-74
2023/12/15 04:44:03;;;;;;;41.97;13.43;;;;;;;;;;6394860;22;20043;-74
2023/12/15 04:46:29;;;;;;;44.05;13.80;;;;;;;;;;6377618;22;20029;-74
2023/12/15 04:48:57;;;;;;;54.17;14.38;;;;;;;;;;6384174;22;20013;-74
2023/12/15 04:51:23;;;;;;;50.92;12.90;;;;;;;;;;6396135;22;20098;-74
2023/12/15 04:53:49;;;;;;;40.78;12.68;;;;;;;;;;6393172;22;20039;-74
2023/12/15 04:56:15;;;;;;;45.03;13.88;;;;;;;;;;6391980;22;20014;-74
2023/12/15 04:58:41;;;;;;;44.97;13.95;;;;;;;;;;6392109;22;20453;-75
2023/12/15 05:01:10;;;;;;;47.47;14.68;;;;;;;;;;6362989;22;20004;-74
2023/12/15 05:03:36;;;;;;;39.90;12.95;;;;;;;;;;6392272;22;20070;-74
2023/12/15 05:06:01;;;;;;;45.80;13.18;;;;;;;;;;6363260;22;20365;-74
2023/12/15 05:08:26;;;;;;;36.22;13.05;;;;;;;;;;6391598;22;20013;-74
2023/12/15 05:10:52;;;;;;;37.33;12.82;;;;;;;;;;6391013;22;20006;-74
2023/12/15 05:13:17;;;;;;;50.88;14.35;;;;;;;;;;6362707;22;20016;-75
2023/12/15 05:15:42;;;;;;;48.00;14.02;;;;;;;;;;6391965;22;19998;-75
2023/12/15 05:18:08;;;;;;;44.78;14.27;;;;;;;;;;6391548;22;20014;-73
2023/12/15 05:20:38;;;;;;;54.38;13.80;;;;;;;;;;6391250;22;20039;-74
2023/12/15 05:23:04;;;;;;;56.50;13.68;;;;;;;;;;6391236;22;20093;-74
2023/12/15 05:25:29;;;;;;;49.28;15.90;;;;;;;;;;6362211;22;20050;-74
2023/12/15 05:27:55;;;;;;;56.55;15.57;;;;;;;;;;6391775;22;19997;-74
2023/12/15 05:30:20;;;;;;;47.85;16.45;;;;;;;;;;6390832;22;20013;-74
2023/12/15 05:32:45;;;;;;;52.92;15.75;;;;;;;;;;6391128;22;20092;-74
2023/12/15 05:35:11;;;;;;;57.80;14.60;;;;;;;;;;6390994;22;20017;-74
2023/12/15 05:37:36;;;;;;;47.05;13.57;;;;;;;;;;6390933;22;20085;-74
2023/12/15 05:40:02;;;;;;;43.65;14.15;;;;;;;;;;6391570;22;20005;-74
2023/12/15 05:42:27;;;;;;;41.10;12.80;;;;;;;;;;6362159;22;20566;-74
2023/12/15 05:44:53;;;;;;;43.47;14.10;;;;;;;;;;6362695;22;20014;-74
2023/12/15 05:47:18;;;;;;;46.60;13.80;;;;;;;;;;6362683;22;20461;-74
2023/12/15 05:49:43;;;;;;;40.65;13.68;;;;;;;;;;6390505;22;20005;-74
2023/12/15 05:52:10;;;;;;;45.17;13.30;;;;;;;;;;6391389;22;20424;-74
2023/12/15 05:54:37;;;;;;;41.40;13.35;;;;;;;;;;6392118;22;20006;-74
2023/12/15 05:57:03;;;;;;;45.00;14.25;;;;;;;;;;6362071;22;20554;-74
2023/12/15 05:59:28;;;;;;;41.13;13.13;;;;;;;;;;6363144;22;20026;-74
2023/12/15 06:01:53;;;;;;;43.35;13.18;;;;;;;;;;6392641;22;20361;-74
2023/12/15 06:04:19;;;;;;;43.75;13.25;;;;;;;;;;6396930;22;20334;-74
2023/12/15 06:06:44;;;;;;;40.95;13.85;;;;;;;;;;6378353;22;20348;-74
2023/12/15 06:09:09;;;;;;;39.10;14.23;;;;;;;;;;6399226;22;20025;-74
2023/12/15 06:11:42;;;;;;;44.17;13.95;;;;;;;;;;6391261;22;20021;-74
2023/12/15 06:14:08;;;;;;;42.67;13.95;;;;;;;;;;6362034;22;20020;-74
2023/12/15 06:16:34;;;;;;;42.10;13.93;;;;;;;;;;6360390;22;20049;-74
2023/12/15 06:18:59;;;;;;;46.00;13.45;;;;;;;;;;6363211;22;20436;-74
2023/12/15 06:21:26;;;;;;;39.70;13.77;;;;;;;;;;6390121;22;20033;-74
2023/12/15 06:23:52;;;;;;;45.95;13.77;;;;;;;;;;6390879;22;20014;-74
2023/12/15 06:26:19;;;;;;;40.78;14.23;;;;;;;;;;6391151;22;20101;-74
2023/12/15 06:28:45;;;;;;;46.90;13.40;;;;;;;;;;6390419;22;20036;-74
2023/12/15 06:31:10;;;;;;;44.97;14.27;;;;;;;;;;6390803;22;20345;-74
2023/12/15 06:33:36;;;;;;;56.78;16.00;;;;;;;;;;6361509;22;20002;-74
2023/12/15 06:36:01;;;;;;;49.75;14.70;;;;;;;;;;6362364;22;20021;-74
2023/12/15 06:38:26;;;;;;;48.00;14.07;;;;;;;;;;6362439;22;20054;-74
2023/12/15 06:40:52;;;;;;;41.53;13.65;;;;;;;;;;6362643;22;20010;-74
2023/12/15 06:43:17;;;;;;;40.13;12.80;;;;;;;;;;6392594;22;20425;-74
2023/12/15 06:45:42;;;;;;;50.25;14.70;;;;;;;;;;6393132;22;20464;-74
2023/12/15 06:48:08;;;;;;;43.53;14.98;;;;;;;;;;6393142;22;20430;-74
2023/12/15 06:50:33;;;;;;;49.03;13.27;;;;;;;;;;6392433;22;20034;-74
2023/12/15 06:52:58;;;;;;;39.75;14.05;;;;;;;;;;6364095;22;20020;-74
2023/12/15 06:55:24;;;;;;;40.17;14.23;;;;;;;;;;6392884;22;20013;-74
2023/12/15 06:57:49;;;;;;;45.25;14.20;;;;;;;;;;6364890;22;20022;-74
2023/12/15 07:00:15;;;;;;;42.22;14.32;;;;;;;;;;6392039;22;20915;-74
2023/12/15 07:02:41;;;;;;;46.72;15.38;;;;;;;;;;6364921;22;20035;-74
2023/12/15 07:05:06;;;;;;;42.78;14.55;;;;;;;;;;6364009;22;20044;-74
2023/12/15 07:07:32;;;;;;;40.67;13.63;;;;;;;;;;6363736;22;20477;-74
2023/12/15 07:09:57;;;;;;;42.28;13.80;;;;;;;;;;6393499;22;20047;-74
2023/12/15 07:12:23;;;;;;;36.45;14.40;;;;;;;;;;6392795;22;20017;-74
2023/12/15 07:14:48;;;;;;;34.53;13.18;;;;;;;;;;6393007;22;20024;-74
2023/12/15 07:17:13;;;;;;;45.50;13.82;;;;;;;;;;6392747;22;20010;-74
2023/12/15 07:19:39;;;;;;;40.08;13.77;;;;;;;;;;6393364;22;20018;-74
2023/12/15 07:22:04;;;;;;;34.72;13.80;;;;;;;;;;6394665;22;19990;-74
2023/12/15 07:24:30;;;;;;;40.17;14.68;;;;;;;;;;6402851;22;20008;-74
2023/12/15 07:26:56;;;;;;;38.78;13.57;;;;;;;;;;6384654;22;20061;-74
2023/12/15 07:29:21;;;;;;;41.15;13.45;;;;;;;;;;6403112;22;20063;-74
2023/12/15 07:31:49;;;;;;;38.78;12.80;;;;;;;;;;6394148;22;20016;-74
2023/12/15 07:34:14;;;;;;;36.85;13.15;;;;;;;;;;6365047;22;20013;-74
2023/12/15 07:36:40;;;;;;;39.88;13.18;;;;;;;;;;6391011;22;20383;-74
2023/12/15 07:39:05;;;;;;;35.40;12.20;;;;;;;;;;6359742;22;20017;-74
2023/12/15 07:41:30;;;;;;;35.13;12.27;;;;;;;;;;6360714;22;20010;-74
2023/12/15 07:43:56;;;;;;;37.58;14.02;;;;;;;;;;6391202;22;20025;-74
2023/12/15 07:46:21;;;;;;;30.45;12.18;;;;;;;;;;6389875;22;20018;-74
2023/12/15 07:48:47;;;;;;;38.33;13.48;;;;;;;;;;6388954;22;20002;-74
2023/12/15 07:51:16;;;;;;;39.22;12.80;;;;;;;;;;6388940;22;20002;-74
2023/12/15 07:53:42;;;;;;;38.70;13.13;;;;;;;;;;6386507;22;20094;-74
2023/12/15 07:56:08;;;;;;;35.85;11.68;;;;;;;;;;6380199;22;20476;-74
2023/12/15 07:58:33;;;;;;;33.85;12.60;;;;;;;;;;6360108;22;20013;-74
2023/12/15 08:00:59;;;;;;;38.53;12.20;;;;;;;;;;6383132;22;20001;-74
2023/12/15 08:03:24;;;;;;;30.60;12.27;;;;;;;;;;6359980;22;20035;-74
2023/12/15 08:05:50;;;;;;;37.50;13.07;;;;;;;;;;6388175;22;20063;-74
2023/12/15 08:08:15;;;;;;;37.13;12.73;;;;;;;;;;6389176;22;20586;-74
2023/12/15 08:10:40;;;;;;;32.72;12.70;;;;;;;;;;6390682;22;20014;-74
2023/12/15 08:13:10;;;;;;;35.80;11.13;;;;;;;;;;6362564;22;20006;-74
2023/12/15 08:15:35;;;;;;;29.30;11.55;;;;;;;;;;6361471;22;20465;-74
2023/12/15 08:18:00;;;;;;;39.67;14.18;;;;;;;;;;6391123;22;20029;-74
2023/12/15 08:20:26;;;;;;;30.63;12.10;;;;;;;;;;6390940;22;20361;-74
2023/12/15 08:22:51;;;;;;;41.83;19.63;;;;;;;;;;6391278;22;20440;-73
2023/12/15 08:25:16;;;;;;;35.95;14.57;;;;;;;;;;6361455;22;20008;-74
2023/12/15 08:27:42;;;;;;;32.72;12.15;;;;;;;;;;6390860;22;20329;-74
2023/12/15 08:30:08;;;;;;;32.08;12.32;;;;;;;;;;6390878;22;20017;-73
2023/12/15 08:32:34;;;;;;;31.30;12.05;;;;;;;;;;6390730;22;20163;-74
2023/12/15 08:34:59;;;;;;;34.20;12.43;;;;;;;;;;6391106;22;20439;-73
2023/12/15 08:37:24;;;;;;;36.15;12.85;;;;;;;;;;6391671;22;20445;-74
2023/12/15 08:39:50;;;;;;;29.35;11.18;;;;;;;;;;6393475;22;20002;-73
2023/12/15 08:42:15;;;;;;;33.08;12.70;;;;;;;;;;6394987;22;20014;-73
2023/12/15 08:44:43;;;;;;;29.77;12.23;;;;;;;;;;6404960;22;20013;-74
2023/12/15 08:47:08;;;;;;;34.25;12.68;;;;;;;;;;6402744;22;20418;-74
2023/12/15 08:49:34;;;;;;;28.10;12.27;;;;;;;;;;6391009;22;20016;-74
2023/12/15 08:52:00;;;;;;;33.50;12.15;;;;;;;;;;6391337;22;20075;-74
2023/12/15 08:54:25;;;;;;;35.03;12.13;;;;;;;;;;6390725;22;20449;-73
2023/12/15 08:56:51;;;;;;;38.38;13.05;;;;;;;;;;6389756;22;20009;-74
2023/12/15 08:59:16;;;;;;;36.20;13.68;;;;;;;;;;6390417;22;20010;-74
2023/12/15 09:01:41;;;;;;;31.38;11.40;;;;;;;;;;6362469;22;20002;-73
2023/12/15 09:04:07;;;;;;;30.95;11.30;;;;;;;;;;6389900;22;20031;-74
2023/12/15 09:06:32;;;;;;;36.03;11.82;;;;;;;;;;6379492;22;20006;-74
2023/12/15 09:08:57;;;;;;;25.13;10.07;;;;;;;;;;6375052;22;20404;-74
2023/12/15 09:11:23;;;;;;;28.05;10.88;;;;;;;;;;6386498;22;20079;-74
2023/12/15 09:13:48;;;;;;;28.42;10.10;;;;;;;;;;6390054;22;20080;-74
2023/12/15 09:16:14;;;;;;;27.08;10.25;;;;;;;;;;6362300;22;20063;-73
2023/12/15 09:18:39;;;;;;;30.10;10.55;;;;;;;;;;6391581;22;20062;-73
2023/12/15 09:21:05;;;;;;;32.08;10.57;;;;;;;;;;6360834;22;20010;-74
2023/12/15 09:23:30;;;;;;;26.77;10.50;;;;;;;;;;6352066;22;20158;-73
2023/12/15 09:25:55;;;;;;;27.30;10.23;;;;;;;;;;6386180;22;20685;-74
2023/12/15 09:28:21;;;;;;;31.33;9.90;;;;;;;;;;6342638;22;20005;-73
2023/12/15 09:30:46;;;;;;;24.10;9.80;;;;;;;;;;6389465;22;20009;-73
2023/12/15 09:33:11;;;;;;;22.67;9.63;;;;;;;;;;6390786;22;20041;-73
2023/12/15 09:35:37;;;;;;;22.50;9.85;;;;;;;;;;6389531;22;20014;-74
2023/12/15 09:38:03;;;;;;;26.40;11.20;;;;;;;;;;6386456;22;20010;-73
2023/12/15 09:40:30;;;;;;;27.00;9.90;;;;;;;;;;6390043;22;20021;-73
2023/12/15 09:42:55;;;;;;;22.88;9.10;;;;;;;;;;6391231;22;20505;-73
2023/12/15 09:45:20;;;;;;;25.27;8.98;;;;;;;;;;6361885;22;20013;-74
2023/12/15 09:47:47;;;;;;;25.65;9.00;;;;;;;;;;6361883;22;20029;-74
2023/12/15 09:50:12;;;;;;;16.65;8.43;;;;;;;;;;6361964;22;20010;-74
2023/12/15 09:52:39;;;;;;;19.25;8.38;;;;;;;;;;6361283;22;20009;-74
2023/12/15 09:55:06;;;;;;;17.77;8.27;;;;;;;;;;6390579;22;20012;-74
2023/12/15 09:57:33;;;;;;;28.55;8.55;;;;;;;;;;6391508;22;20055;-73
2023/12/15 09:59:58;;;;;;;21.60;9.30;;;;;;;;;;6363816;22;20013;-77
2023/12/15 10:02:24;;;;;;;22.23;9.70;;;;;;;;;;6371784;22;20018;-73
2023/12/15 10:04:50;;;;;;;24.85;8.93;;;;;;;;;;6408361;22;20033;-74
2023/12/15 10:07:15;;;;;;;21.75;8.65;;;;;;;;;;6402394;22;20443;-74
2023/12/15 10:09:40;;;;;;;22.27;8.15;;;;;;;;;;6391937;22;20001;-74
2023/12/15 10:12:09;;;;;;;26.75;9.30;;;;;;;;;;6388619;22;20038;-74
2023/12/15 10:14:37;;;;;;;31.13;9.88;;;;;;;;;;6389055;22;20022;-74
2023/12/15 10:17:03;;;;;;;20.20;8.40;;;;;;;;;;6391446;22;20028;-74
2023/12/15 10:19:28;;;;;;;22.73;8.10;;;;;;;;;;6391612;22;20376;-74
2023/12/15 10:21:55;;;;;;;25.88;8.75;;;;;;;;;;6392934;22;19998;-74
2023/12/15 10:24:22;;;;;;;21.38;8.48;;;;;;;;;;6391928;22;20021;-73
2023/12/15 10:26:48;;;;;;;22.48;7.90;;;;;;;;;;6390714;22;20030;-74
2023/12/15 10:29:15;;;;;;;20.70;8.00;;;;;;;;;;6389400;22;20085;-75
2023/12/15 10:31:41;;;;;;;22.02;7.95;;;;;;;;;;6390568;22;20662;-74
2023/12/15 10:34:07;;;;;;;17.23;7.05;;;;;;;;;;6391497;22;20002;-74
2023/12/15 10:36:33;;;;;;;24.17;7.60;;;;;;;;;;6392659;22;20490;-74
2023/12/15 10:39:03;;;;;;;19.58;7.55;;;;;;;;;;6391336;22;20014;-74
2023/12/15 10:41:32;;;;;;;24.75;8.18;;;;;;;;;;6389434;22;20016;-74
2023/12/15 10:43:59;;;;;;;23.33;8.43;;;;;;;;;;6390643;22;20629;-74
2023/12/15 10:46:27;;;;;;;21.23;7.57;;;;;;;;;;6391430;22;20009;-75
2023/12/15 10:48:53;;;;;;;26.75;9.35;;;;;;;;;;6392516;22;19998;-74
2023/12/15 10:51:19;;;;;;;27.77;9.85;;;;;;;;;;6390662;22;20056;-74
2023/12/15 10:53:46;;;;;;;27.95;9.40;;;;;;;;;;6391735;22;20097;-74
2023/12/15 10:56:11;;;;;;;23.77;9.45;;;;;;;;;;6391340;22;20423;-75
2023/12/15 10:58:37;;;;;;;22.83;8.38;;;;;;;;;;6362530;22;20013;-74
2023/12/15 11:01:03;;;;;;;21.48;8.82;;;;;;;;;;6390733;22;20001;-74
2023/12/15 11:03:29;;;;;;;21.40;8.23;;;;;;;;;;6392028;22;19994;-74
2023/12/15 11:05:55;;;;;;;22.42;8.55;;;;;;;;;;6391724;22;20018;-74
2023/12/15 11:08:21;;;;;;;18.77;7.18;;;;;;;;;;6391046;22;20025;-74
2023/12/15 11:10:50;;;;;;;22.65;7.85;;;;;;;;;;6391643;22;20014;-74
2023/12/15 11:13:52;;;;;;;19.90;7.32;;;;;;;;;;6391451;22;20027;-74
2023/12/15 11:16:19;;;;;;;25.52;7.55;;;;;;;;;;6363687;22;20084;-74
2023/12/15 11:18:44;;;;;;;25.58;7.30;;;;;;;;;;6365086;22;19997;-74
2023/12/15 11:21:10;;;;;;;15.95;7.72;;;;;;;;;;6399006;22;20039;-74
2023/12/15 11:24:11;;;;;;;18.80;7.25;;;;;;;;;;6378023;22;20017;-74
2023/12/15 11:26:37;;;;;;;14.43;5.85;;;;;;;;;;6239468;22;20016;-74
2023/12/15 11:29:03;;;;;;;15.35;6.63;;;;;;;;;;6336011;22;20028;-74
2023/12/15 11:31:30;;;;;;;16.83;6.47;;;;;;;;;;6362166;22;20010;-74
2023/12/15 11:33:55;;;;;;;19.83;6.78;;;;;;;;;;6391790;22;20005;-74
2023/12/15 11:36:21;;;;;;;20.05;7.00;;;;;;;;;;6363027;22;20017;-72
2023/12/15 11:38:49;;;;;;;15.40;6.57;;;;;;;;;;6390754;22;20376;-74
2023/12/15 11:41:19;;;;;;;18.40;6.60;;;;;;;;;;6391096;22;20484;-74
2023/12/15 11:43:44;;;;;;;19.38;7.00;;;;;;;;;;6390591;22;20017;-74
2023/12/15 11:46:11;;;;;;;20.25;7.07;;;;;;;;;;6390926;22;19998;-74
2023/12/15 11:48:36;;;;;;;19.95;7.13;;;;;;;;;;6391874;22;19990;-74
2023/12/15 11:51:02;;;;;;;20.10;7.63;;;;;;;;;;6390724;22;20037;-74
2023/12/15 11:53:29;;;;;;;15.50;6.90;;;;;;;;;;6362032;22;20097;-74
2023/12/15 11:55:57;;;;;;;18.58;6.95;;;;;;;;;;6391189;22;20018;-74
2023/12/15 11:58:22;;;;;;;20.52;6.95;;;;;;;;;;6390590;22;20041;-74
2023/12/15 12:00:48;;;;;;;16.48;5.60;;;;;;;;;;6361206;22;20013;-75
2023/12/15 12:03:15;;;;;;;20.58;5.88;;;;;;;;;;6388761;22;20006;-74
2023/12/15 12:05:53;;;;;;;14.48;5.22;;;;;;;;;;6390556;22;20480;-74
2023/12/15 12:08:21;;;;;;;16.55;5.93;;;;;;;;;;6362775;22;20125;-75
2023/12/15 12:10:47;;;;;;;15.80;5.72;;;;;;;;;;6391077;22;20525;-74
2023/12/15 12:13:12;;;;;;;17.00;5.82;;;;;;;;;;6361610;22;20029;-74
2023/12/15 12:15:51;;;;;;;14.38;5.70;;;;;;;;;;6390568;22;20006;-74
2023/12/15 12:18:21;;;;;;;24.50;5.82;;;;;;;;;;6390015;22;20041;-74
2023/12/15 12:20:47;;;;;;;21.65;6.32;;;;;;;;;;6389657;22;20010;-75
2023/12/15 12:23:12;;;;;;;15.65;5.95;;;;;;;;;;6390543;22;20021;-74
2023/12/15 12:25:42;;;;;;;17.75;6.22;;;;;;;;;;6391040;22;20067;-74
2023/12/15 12:28:08;;;;;;;20.55;5.63;;;;;;;;;;6389843;22;19998;-75
2023/12/15 12:30:33;;;;;;;14.75;5.05;;;;;;;;;;6388986;22;20494;-74
2023/12/15 12:32:58;;;;;;;15.65;5.22;;;;;;;;;;6362583;22;20626;-74
2023/12/15 12:35:24;;;;;;;13.38;5.07;;;;;;;;;;6363422;22;20017;-75
2023/12/15 12:37:49;;;;;;;13.13;4.72;;;;;;;;;;6364673;22;20014;-75
2023/12/15 12:40:14;;;;;;;12.30;4.63;;;;;;;;;;6369214;22;20016;-75
2023/12/15 12:42:40;;;;;;;15.15;4.53;;;;;;;;;;6410359;22;20069;-74
2023/12/15 12:45:06;;;;;;;12.13;4.65;;;;;;;;;;6404447;22;20074;-74
2023/12/15 12:47:36;;;;;;;14.52;4.85;;;;;;;;;;6369028;22;20017;-74
2023/12/15 12:50:03;;;;;;;13.00;5.18;;;;;;;;;;6382033;22;20501;-74
2023/12/15 12:52:29;;;;;;;19.20;5.55;;;;;;;;;;6392437;22;20002;-75
2023/12/15 12:54:54;;;;;;;20.13;5.63;;;;;;;;;;6391786;22;20048;-75
2023/12/15 12:57:19;;;;;;;17.85;5.88;;;;;;;;;;6392345;22;20020;-74
2023/12/15 12:59:45;;;;;;;25.58;6.13;;;;;;;;;;6390757;22;20006;-75
2023/12/15 13:02:10;;;;;;;20.80;6.30;;;;;;;;;;6362860;22;20055;-74
2023/12/15 13:04:36;;;;;;;17.50;6.78;;;;;;;;;;6392491;22;19992;-74
2023/12/15 13:07:01;;;;;;;17.85;6.53;;;;;;;;;;6360629;22;20044;-75
2023/12/15 13:09:27;;;;;;;18.27;7.00;;;;;;;;;;6391035;22;20050;-75
2023/12/15 13:11:52;;;;;;;16.75;6.25;;;;;;;;;;6390127;22;20017;-75
2023/12/15 13:14:18;;;;;;;19.45;6.38;;;;;;;;;;6389513;22;20040;-75
2023/12/15 13:16:46;;;;;;;19.20;7.18;;;;;;;;;;6389459;22;20082;-77
2023/12/15 13:19:12;;;;;;;19.52;6.65;;;;;;;;;;6391126;22;20131;-77
2023/12/15 13:21:38;;;;;;;20.58;7.30;;;;;;;;;;6390289;22;20043;-75
2023/12/15 13:24:04;;;;;;;19.00;6.78;;;;;;;;;;6389867;22;20013;-74
2023/12/15 13:26:30;;;;;;;17.55;6.65;;;;;;;;;;6390438;22;20483;-74
2023/12/15 13:28:55;;;;;;;18.55;7.03;;;;;;;;;;6390324;22;20021;-75
2023/12/15 13:31:21;;;;;;;15.05;6.07;;;;;;;;;;6388690;22;20033;-74
2023/12/15 13:33:47;;;;;;;17.13;6.68;;;;;;;;;;6389974;22;20369;-74
2023/12/15 13:36:17;;;;;;;19.55;6.88;;;;;;;;;;6390025;22;20010;-74
2023/12/15 13:38:43;;;;;;;18.92;6.82;;;;;;;;;;6361837;22;20696;-74
2023/12/15 13:41:10;;;;;;;21.08;7.25;;;;;;;;;;6390489;22;19998;-74
2023/12/15 13:43:37;;;;;;;19.02;6.88;;;;;;;;;;6390533;22;20032;-74
2023/12/15 13:46:03;;;;;;;16.33;6.82;;;;;;;;;;6361488;22;20018;-74
2023/12/15 13:48:29;;;;;;;15.68;5.70;;;;;;;;;;6386541;22;20058;-75
2023/12/15 13:50:55;;;;;;;18.60;6.20;;;;;;;;;;6386514;22;20010;-74
2023/12/15 13:53:20;;;;;;;21.35;5.82;;;;;;;;;;6388161;22;20812;-75
2023/12/15 13:55:46;;;;;;;24.58;6.90;;;;;;;;;;6389645;22;20013;-74
2023/12/15 13:58:12;;;;;;;18.33;5.97;;;;;;;;;;6394231;22;20014;-74
2023/12/15 14:00:37;;;;;;;14.50;6.18;;;;;;;;;;6401620;22;20017;-74
2023/12/15 14:03:03;;;;;;;20.80;5.30;;;;;;;;;;6371079;22;20408;-74
2023/12/15 14:05:28;;;;;;;17.67;5.80;;;;;;;;;;6375427;22;20017;-74
2023/12/15 14:07:54;;;;;;;15.23;5.93;;;;;;;;;;6387055;22;20032;-74
2023/12/15 14:10:20;;;;;;;17.42;5.63;;;;;;;;;;6386889;22;20002;-73
2023/12/15 14:12:46;;;;;;;24.00;6.43;;;;;;;;;;6387134;22;20018;-74
2023/12/15 14:15:12;;;;;;;16.77;5.90;;;;;;;;;;6387753;22;20033;-74